sensor_id;sensor_type;location;lat;lon;timestamp;P1;durP1;ratioP1;P2;durP2;ratioP2
13855;SDS011;6998;53.608;9.958;2023-02-03T00:01:56;5.67;;;5.17;;
13855;SDS011;6998;53.608;9.958;2023-02-03T00:04:23;4.73;;;4.30;;
13855;SDS011;6998;53.608;9.958;2023-02-03T00:06:50;5.43;;;4.60;;
13855;SDS011;6998;53.608;9.958;2023-02-03T00:09:17;5.60;;;5.10;;
13855;SDS011;6998;53.608;9.958;2023-02-03T00:11:44;6.03;;;5.43;;
13855;SDS011;6998;53.608;9.958;2023-02-03T00:14:11;5.73;;;5.23;;
13855;SDS011;6998;53.608;9.958;2023-02-03T00:16:39;6.33;;;5.73;;
13855;SDS011;6998;53.608;9.958;2023-02-03T00:19:06;6.77;;;6.07;;
13855;SDS011;6998;53.608;9.958;2023-02-03T00:21:33;6.17;;;5.57;;
13855;SDS011;6998;53.608;9.958;2023-02-03T00:23:59;7.13;;;6.13;;
13855;SDS011;6998;53.608;9.958;2023-02-03T00:26:26;7.27;;;6.57;;
13855;SDS011;6998;53.608;9.958;2023-02-03T00:28:53;6.93;;;6.20;;
13855;SDS011;6998;53.608;9.958;2023-02-03T00:31:21;7.10;;;6.40;;
13855;SDS011;6998;53.608;9.958;2023-02-03T00:33:53;7.33;;;6.57;;
13855;SDS011;6998;53.608;9.958;2023-02-03T00:36:20;6.77;;;6.17;;
13855;SDS011;6998;53.608;9.958;2023-02-03T00:38:47;7.80;;;6.70;;
13855;SDS011;6998;53.608;9.958;2023-02-03T00:41:15;6.70;;;5.93;;
13855;SDS011;6998;53.608;9.958;2023-02-03T00:43:41;6.93;;;6.23;;
13855;SDS011;6998;53.608;9.958;2023-02-03T00:46:08;7.30;;;6.00;;
13855;SDS011;6998;53.608;9.958;2023-02-03T00:48:35;7.07;;;6.37;;
13855;SDS011;6998;53.608;9.958;2023-02-03T00:51:03;6.87;;;6.17;;
13855;SDS011;6998;53.608;9.958;2023-02-03T00:53:30;8.33;;;6.83;;
13855;SDS011;6998;53.608;9.958;2023-02-03T00:55:57;9.03;;;6.77;;
13855;SDS011;6998;53.608;9.958;2023-02-03T00:58:23;9.07;;;7.37;;
13855;SDS011;6998;53.608;9.958;2023-02-03T01:00:50;12.23;;;8.03;;
13855;SDS011;6998;53.608;9.958;2023-02-03T01:03:19;11.87;;;8.20;;
13855;SDS011;6998;53.608;9.958;2023-02-03T01:05:45;14.07;;;8.47;;
13855;SDS011;6998;53.608;9.958;2023-02-03T01:08:13;13.53;;;7.90;;
13855;SDS011;6998;53.608;9.958;2023-02-03T01:10:40;12.80;;;7.67;;
13855;SDS011;6998;53.608;9.958;2023-02-03T01:13:07;14.33;;;8.17;;
13855;SDS011;6998;53.608;9.958;2023-02-03T01:15:33;16.73;;;8.37;;
13855;SDS011;6998;53.608;9.958;2023-02-03T01:18:00;14.83;;;8.53;;
13855;SDS011;6998;53.608;9.958;2023-02-03T01:20:27;16.30;;;7.37;;
13855;SDS011;6998;53.608;9.958;2023-02-03T01:22:54;14.00;;;7.80;;
13855;SDS011;6998;53.608;9.958;2023-02-03T01:25:22;15.70;;;8.50;;
13855;SDS011;6998;53.608;9.958;2023-02-03T01:27:49;14.17;;;7.60;;
13855;SDS011;6998;53.608;9.958;2023-02-03T01:30:16;15.77;;;7.73;;
13855;SDS011;6998;53.608;9.958;2023-02-03T01:32:43;21.37;;;7.73;;
13855;SDS011;6998;53.608;9.958;2023-02-03T01:35:09;13.50;;;8.17;;
13855;SDS011;6998;53.608;9.958;2023-02-03T01:37:36;14.13;;;7.50;;
13855;SDS011;6998;53.608;9.958;2023-02-03T01:40:03;12.43;;;7.03;;
13855;SDS011;6998;53.608;9.958;2023-02-03T01:42:32;11.40;;;6.77;;
13855;SDS011;6998;53.608;9.958;2023-02-03T01:44:59;12.17;;;6.90;;
13855;SDS011;6998;53.608;9.958;2023-02-03T01:47:27;10.33;;;6.90;;
13855;SDS011;6998;53.608;9.958;2023-02-03T01:49:58;14.90;;;7.33;;
13855;SDS011;6998;53.608;9.958;2023-02-03T01:52:31;15.63;;;6.87;;
13855;SDS011;6998;53.608;9.958;2023-02-03T01:54:59;12.13;;;6.70;;
13855;SDS011;6998;53.608;9.958;2023-02-03T01:57:30;12.37;;;6.03;;
13855;SDS011;6998;53.608;9.958;2023-02-03T02:00:02;12.50;;;6.40;;
13855;SDS011;6998;53.608;9.958;2023-02-03T02:02:31;12.27;;;5.97;;
13855;SDS011;6998;53.608;9.958;2023-02-03T02:05:00;14.80;;;6.23;;
13855;SDS011;6998;53.608;9.958;2023-02-03T02:07:30;12.33;;;6.27;;
13855;SDS011;6998;53.608;9.958;2023-02-03T02:09:59;13.33;;;6.03;;
13855;SDS011;6998;53.608;9.958;2023-02-03T02:12:26;10.77;;;5.80;;
13855;SDS011;6998;53.608;9.958;2023-02-03T02:14:54;14.50;;;6.43;;
13855;SDS011;6998;53.608;9.958;2023-02-03T02:17:25;10.50;;;5.80;;
13855;SDS011;6998;53.608;9.958;2023-02-03T02:20:23;12.57;;;6.50;;
13855;SDS011;6998;53.608;9.958;2023-02-03T02:32:18;10.93;;;6.67;;
13855;SDS011;6998;53.608;9.958;2023-02-03T02:34:56;14.57;;;6.80;;
13855;SDS011;6998;53.608;9.958;2023-02-03T02:37:34;16.93;;;6.87;;
13855;SDS011;6998;53.608;9.958;2023-02-03T02:40:08;10.47;;;6.40;;
13855;SDS011;6998;53.608;9.958;2023-02-03T02:42:45;9.93;;;5.87;;
13855;SDS011;6998;53.608;9.958;2023-02-03T02:45:20;9.80;;;6.00;;
13855;SDS011;6998;53.608;9.958;2023-02-03T02:47:51;13.27;;;6.33;;
13855;SDS011;6998;53.608;9.958;2023-02-03T02:50:22;13.73;;;5.60;;
13855;SDS011;6998;53.608;9.958;2023-02-03T02:52:52;12.40;;;5.40;;
13855;SDS011;6998;53.608;9.958;2023-02-03T02:55:21;7.27;;;4.93;;
13855;SDS011;6998;53.608;9.958;2023-02-03T02:57:52;10.13;;;5.17;;
13855;SDS011;6998;53.608;9.958;2023-02-03T03:00:22;9.13;;;5.17;;
13855;SDS011;6998;53.608;9.958;2023-02-03T03:02:49;12.87;;;4.77;;
13855;SDS011;6998;53.608;9.958;2023-02-03T03:05:17;12.93;;;5.23;;
13855;SDS011;6998;53.608;9.958;2023-02-03T03:07:46;8.63;;;4.53;;
13855;SDS011;6998;53.608;9.958;2023-02-03T03:10:16;13.70;;;4.77;;
13855;SDS011;6998;53.608;9.958;2023-02-03T03:12:48;12.63;;;4.60;;
13855;SDS011;6998;53.608;9.958;2023-02-03T03:15:21;13.63;;;4.37;;
13855;SDS011;6998;53.608;9.958;2023-02-03T03:17:52;8.07;;;4.17;;
13855;SDS011;6998;53.608;9.958;2023-02-03T03:20:24;9.40;;;3.73;;
13855;SDS011;6998;53.608;9.958;2023-02-03T03:22:55;9.50;;;4.03;;
13855;SDS011;6998;53.608;9.958;2023-02-03T03:25:25;9.63;;;3.90;;
13855;SDS011;6998;53.608;9.958;2023-02-03T03:27:58;10.70;;;3.30;;
13855;SDS011;6998;53.608;9.958;2023-02-03T03:30:28;8.37;;;3.27;;
13855;SDS011;6998;53.608;9.958;2023-02-03T03:32:59;6.03;;;3.43;;
13855;SDS011;6998;53.608;9.958;2023-02-03T03:35:29;8.67;;;3.10;;
13855;SDS011;6998;53.608;9.958;2023-02-03T03:38:03;10.20;;;3.20;;
13855;SDS011;6998;53.608;9.958;2023-02-03T03:40:36;9.70;;;2.90;;
13855;SDS011;6998;53.608;9.958;2023-02-03T03:43:07;11.27;;;2.97;;
13855;SDS011;6998;53.608;9.958;2023-02-03T03:45:40;10.93;;;3.00;;
13855;SDS011;6998;53.608;9.958;2023-02-03T03:48:10;10.43;;;3.07;;
13855;SDS011;6998;53.608;9.958;2023-02-03T03:50:44;5.30;;;2.90;;
13855;SDS011;6998;53.608;9.958;2023-02-03T03:53:14;9.13;;;3.00;;
13855;SDS011;6998;53.608;9.958;2023-02-03T03:55:43;9.43;;;3.10;;
13855;SDS011;6998;53.608;9.958;2023-02-03T03:58:15;9.47;;;2.80;;
13855;SDS011;6998;53.608;9.958;2023-02-03T04:00:45;9.83;;;3.43;;
13855;SDS011;6998;53.608;9.958;2023-02-03T04:03:14;13.63;;;3.60;;
13855;SDS011;6998;53.608;9.958;2023-02-03T04:05:47;8.80;;;3.03;;
13855;SDS011;6998;53.608;9.958;2023-02-03T04:08:14;10.30;;;3.17;;
13855;SDS011;6998;53.608;9.958;2023-02-03T04:10:41;10.83;;;3.33;;
13855;SDS011;6998;53.608;9.958;2023-02-03T04:13:09;10.10;;;3.57;;
13855;SDS011;6998;53.608;9.958;2023-02-03T04:15:36;12.73;;;3.97;;
13855;SDS011;6998;53.608;9.958;2023-02-03T04:18:04;11.77;;;4.00;;
13855;SDS011;6998;53.608;9.958;2023-02-03T04:20:31;9.77;;;3.90;;
13855;SDS011;6998;53.608;9.958;2023-02-03T04:22:59;8.10;;;4.00;;
13855;SDS011;6998;53.608;9.958;2023-02-03T04:25:26;7.90;;;3.80;;
13855;SDS011;6998;53.608;9.958;2023-02-03T04:27:53;8.47;;;3.87;;
13855;SDS011;6998;53.608;9.958;2023-02-03T04:30:20;7.60;;;3.50;;
13855;SDS011;6998;53.608;9.958;2023-02-03T04:32:47;10.33;;;3.53;;
13855;SDS011;6998;53.608;9.958;2023-02-03T04:35:14;8.57;;;3.67;;
13855;SDS011;6998;53.608;9.958;2023-02-03T04:37:41;9.23;;;3.70;;
13855;SDS011;6998;53.608;9.958;2023-02-03T04:40:09;7.80;;;3.60;;
13855;SDS011;6998;53.608;9.958;2023-02-03T04:42:37;9.27;;;4.10;;
13855;SDS011;6998;53.608;9.958;2023-02-03T04:45:05;9.83;;;3.57;;
13855;SDS011;6998;53.608;9.958;2023-02-03T04:47:32;6.80;;;3.50;;
13855;SDS011;6998;53.608;9.958;2023-02-03T04:50:00;7.60;;;3.47;;
13855;SDS011;6998;53.608;9.958;2023-02-03T04:52:27;10.30;;;4.30;;
13855;SDS011;6998;53.608;9.958;2023-02-03T04:54:53;8.67;;;4.03;;
13855;SDS011;6998;53.608;9.958;2023-02-03T04:57:21;7.17;;;4.40;;
13855;SDS011;6998;53.608;9.958;2023-02-03T04:59:48;7.43;;;3.97;;
13855;SDS011;6998;53.608;9.958;2023-02-03T05:02:15;10.53;;;4.50;;
13855;SDS011;6998;53.608;9.958;2023-02-03T05:04:42;8.80;;;4.10;;
13855;SDS011;6998;53.608;9.958;2023-02-03T05:07:08;8.43;;;4.40;;
13855;SDS011;6998;53.608;9.958;2023-02-03T05:09:35;12.27;;;5.20;;
13855;SDS011;6998;53.608;9.958;2023-02-03T05:12:02;11.43;;;4.80;;
13855;SDS011;6998;53.608;9.958;2023-02-03T05:14:30;11.43;;;4.80;;
13855;SDS011;6998;53.608;9.958;2023-02-03T05:16:57;11.60;;;5.10;;
13855;SDS011;6998;53.608;9.958;2023-02-03T05:19:24;10.60;;;5.00;;
13855;SDS011;6998;53.608;9.958;2023-02-03T05:21:50;11.50;;;5.07;;
13855;SDS011;6998;53.608;9.958;2023-02-03T05:24:17;11.27;;;5.00;;
13855;SDS011;6998;53.608;9.958;2023-02-03T05:26:44;9.97;;;5.30;;
13855;SDS011;6998;53.608;9.958;2023-02-03T05:29:10;8.00;;;4.47;;
13855;SDS011;6998;53.608;9.958;2023-02-03T05:31:38;7.83;;;4.77;;
13855;SDS011;6998;53.608;9.958;2023-02-03T05:34:05;9.23;;;4.20;;
13855;SDS011;6998;53.608;9.958;2023-02-03T05:36:32;7.97;;;4.10;;
13855;SDS011;6998;53.608;9.958;2023-02-03T05:38:59;6.30;;;4.00;;
13855;SDS011;6998;53.608;9.958;2023-02-03T05:41:26;7.03;;;3.93;;
13855;SDS011;6998;53.608;9.958;2023-02-03T05:44:10;7.90;;;4.07;;
13855;SDS011;6998;53.608;9.958;2023-02-03T05:46:38;9.90;;;4.10;;
13855;SDS011;6998;53.608;9.958;2023-02-03T05:49:05;6.00;;;3.67;;
13855;SDS011;6998;53.608;9.958;2023-02-03T05:51:32;5.37;;;3.87;;
13855;SDS011;6998;53.608;9.958;2023-02-03T05:53:58;6.93;;;3.53;;
13855;SDS011;6998;53.608;9.958;2023-02-03T05:56:25;7.63;;;3.53;;
13855;SDS011;6998;53.608;9.958;2023-02-03T05:58:52;7.73;;;3.60;;
13855;SDS011;6998;53.608;9.958;2023-02-03T06:01:18;9.30;;;3.47;;
13855;SDS011;6998;53.608;9.958;2023-02-03T06:03:47;9.13;;;3.50;;
13855;SDS011;6998;53.608;9.958;2023-02-03T06:06:14;6.17;;;3.53;;
13855;SDS011;6998;53.608;9.958;2023-02-03T06:08:41;7.73;;;3.20;;
13855;SDS011;6998;53.608;9.958;2023-02-03T06:11:08;8.93;;;3.40;;
13855;SDS011;6998;53.608;9.958;2023-02-03T06:13:36;9.07;;;3.33;;
13855;SDS011;6998;53.608;9.958;2023-02-03T06:16:03;6.93;;;2.90;;
13855;SDS011;6998;53.608;9.958;2023-02-03T06:18:30;7.23;;;2.80;;
13855;SDS011;6998;53.608;9.958;2023-02-03T06:20:58;7.33;;;2.70;;
13855;SDS011;6998;53.608;9.958;2023-02-03T06:23:25;11.00;;;2.93;;
13855;SDS011;6998;53.608;9.958;2023-02-03T06:25:52;7.80;;;2.70;;
13855;SDS011;6998;53.608;9.958;2023-02-03T06:28:19;12.33;;;3.50;;
13855;SDS011;6998;53.608;9.958;2023-02-03T06:30:48;8.67;;;3.37;;
13855;SDS011;6998;53.608;9.958;2023-02-03T06:33:15;11.60;;;3.43;;
13855;SDS011;6998;53.608;9.958;2023-02-03T06:35:41;11.70;;;3.57;;
13855;SDS011;6998;53.608;9.958;2023-02-03T06:38:09;7.80;;;3.17;;
13855;SDS011;6998;53.608;9.958;2023-02-03T06:40:36;10.03;;;3.47;;
13855;SDS011;6998;53.608;9.958;2023-02-03T06:43:03;8.90;;;3.50;;
13855;SDS011;6998;53.608;9.958;2023-02-03T06:45:30;12.77;;;3.33;;
13855;SDS011;6998;53.608;9.958;2023-02-03T06:47:57;11.40;;;3.40;;
13855;SDS011;6998;53.608;9.958;2023-02-03T06:50:23;11.77;;;4.00;;
13855;SDS011;6998;53.608;9.958;2023-02-03T06:52:50;14.10;;;4.67;;
13855;SDS011;6998;53.608;9.958;2023-02-03T06:55:18;15.67;;;4.33;;
13855;SDS011;6998;53.608;9.958;2023-02-03T06:57:45;13.47;;;4.13;;
13855;SDS011;6998;53.608;9.958;2023-02-03T07:00:13;17.63;;;4.23;;
13855;SDS011;6998;53.608;9.958;2023-02-03T07:02:41;13.67;;;4.53;;
13855;SDS011;6998;53.608;9.958;2023-02-03T07:05:08;13.83;;;4.13;;
13855;SDS011;6998;53.608;9.958;2023-02-03T07:07:35;17.30;;;4.20;;
13855;SDS011;6998;53.608;9.958;2023-02-03T07:10:03;16.37;;;4.10;;
13855;SDS011;6998;53.608;9.958;2023-02-03T07:12:32;15.80;;;3.73;;
13855;SDS011;6998;53.608;9.958;2023-02-03T07:15:00;11.07;;;3.43;;
13855;SDS011;6998;53.608;9.958;2023-02-03T07:17:27;11.30;;;3.50;;
13855;SDS011;6998;53.608;9.958;2023-02-03T07:19:54;14.43;;;3.43;;
13855;SDS011;6998;53.608;9.958;2023-02-03T07:22:20;13.13;;;3.50;;
13855;SDS011;6998;53.608;9.958;2023-02-03T07:24:47;13.30;;;3.17;;
13855;SDS011;6998;53.608;9.958;2023-02-03T07:27:14;14.10;;;4.23;;
13855;SDS011;6998;53.608;9.958;2023-02-03T07:29:42;14.47;;;3.57;;
13855;SDS011;6998;53.608;9.958;2023-02-03T07:32:09;13.77;;;3.83;;
13855;SDS011;6998;53.608;9.958;2023-02-03T07:34:35;10.13;;;3.10;;
13855;SDS011;6998;53.608;9.958;2023-02-03T07:37:02;15.07;;;3.43;;
13855;SDS011;6998;53.608;9.958;2023-02-03T07:39:29;12.27;;;3.20;;
13855;SDS011;6998;53.608;9.958;2023-02-03T07:41:57;9.50;;;3.20;;
13855;SDS011;6998;53.608;9.958;2023-02-03T07:44:23;12.37;;;3.10;;
13855;SDS011;6998;53.608;9.958;2023-02-03T07:46:52;13.60;;;3.33;;
13855;SDS011;6998;53.608;9.958;2023-02-03T07:49:18;18.13;;;3.57;;
13855;SDS011;6998;53.608;9.958;2023-02-03T07:51:45;12.77;;;4.10;;
13855;SDS011;6998;53.608;9.958;2023-02-03T07:54:12;17.33;;;4.00;;
13855;SDS011;6998;53.608;9.958;2023-02-03T07:56:39;16.03;;;3.17;;
13855;SDS011;6998;53.608;9.958;2023-02-03T07:59:07;14.57;;;3.60;;
13855;SDS011;6998;53.608;9.958;2023-02-03T08:01:33;19.00;;;4.00;;
13855;SDS011;6998;53.608;9.958;2023-02-03T08:04:02;15.60;;;3.90;;
13855;SDS011;6998;53.608;9.958;2023-02-03T08:06:29;18.43;;;4.60;;
13855;SDS011;6998;53.608;9.958;2023-02-03T08:08:56;18.30;;;3.90;;
13855;SDS011;6998;53.608;9.958;2023-02-03T08:11:23;17.00;;;4.30;;
13855;SDS011;6998;53.608;9.958;2023-02-03T08:13:50;13.60;;;3.63;;
13855;SDS011;6998;53.608;9.958;2023-02-03T08:16:16;12.13;;;3.17;;
13855;SDS011;6998;53.608;9.958;2023-02-03T08:18:43;15.60;;;3.97;;
13855;SDS011;6998;53.608;9.958;2023-02-03T08:21:11;15.53;;;4.03;;
13855;SDS011;6998;53.608;9.958;2023-02-03T08:23:38;16.50;;;3.87;;
13855;SDS011;6998;53.608;9.958;2023-02-03T08:26:05;13.83;;;3.53;;
13855;SDS011;6998;53.608;9.958;2023-02-03T08:28:32;15.17;;;3.83;;
13855;SDS011;6998;53.608;9.958;2023-02-03T08:30:59;17.83;;;3.73;;
13855;SDS011;6998;53.608;9.958;2023-02-03T08:33:26;19.30;;;3.97;;
13855;SDS011;6998;53.608;9.958;2023-02-03T08:35:53;21.67;;;4.17;;
13855;SDS011;6998;53.608;9.958;2023-02-03T08:38:22;21.07;;;4.60;;
13855;SDS011;6998;53.608;9.958;2023-02-03T08:40:48;25.03;;;4.90;;
13855;SDS011;6998;53.608;9.958;2023-02-03T08:43:15;25.27;;;5.10;;
13855;SDS011;6998;53.608;9.958;2023-02-03T08:45:42;29.13;;;5.07;;
13855;SDS011;6998;53.608;9.958;2023-02-03T08:48:09;25.33;;;6.00;;
13855;SDS011;6998;53.608;9.958;2023-02-03T08:50:36;21.93;;;4.93;;
13855;SDS011;6998;53.608;9.958;2023-02-03T08:53:03;21.37;;;5.43;;
13855;SDS011;6998;53.608;9.958;2023-02-03T08:55:31;24.37;;;5.70;;
13855;SDS011;6998;53.608;9.958;2023-02-03T08:57:57;30.40;;;6.67;;
13855;SDS011;6998;53.608;9.958;2023-02-03T09:00:24;31.83;;;6.70;;
13855;SDS011;6998;53.608;9.958;2023-02-03T09:02:52;31.33;;;6.63;;
13855;SDS011;6998;53.608;9.958;2023-02-03T09:05:19;30.27;;;6.13;;
13855;SDS011;6998;53.608;9.958;2023-02-03T09:07:45;36.13;;;6.87;;
13855;SDS011;6998;53.608;9.958;2023-02-03T09:10:12;26.47;;;5.70;;
13855;SDS011;6998;53.608;9.958;2023-02-03T09:12:40;35.47;;;6.60;;
13855;SDS011;6998;53.608;9.958;2023-02-03T09:15:07;30.97;;;6.83;;
13855;SDS011;6998;53.608;9.958;2023-02-03T09:17:35;36.37;;;7.27;;
13855;SDS011;6998;53.608;9.958;2023-02-03T09:20:02;31.10;;;7.20;;
13855;SDS011;6998;53.608;9.958;2023-02-03T09:22:29;27.47;;;6.13;;
13855;SDS011;6998;53.608;9.958;2023-02-03T09:24:55;33.70;;;7.20;;
13855;SDS011;6998;53.608;9.958;2023-02-03T09:27:23;36.43;;;7.17;;
13855;SDS011;6998;53.608;9.958;2023-02-03T09:29:51;35.93;;;8.33;;
13855;SDS011;6998;53.608;9.958;2023-02-03T09:32:17;30.50;;;7.57;;
13855;SDS011;6998;53.608;9.958;2023-02-03T09:34:44;33.90;;;8.20;;
13855;SDS011;6998;53.608;9.958;2023-02-03T09:37:11;38.70;;;8.20;;
13855;SDS011;6998;53.608;9.958;2023-02-03T09:39:38;38.70;;;8.23;;
13855;SDS011;6998;53.608;9.958;2023-02-03T09:42:10;37.70;;;8.10;;
13855;SDS011;6998;53.608;9.958;2023-02-03T09:44:57;42.27;;;8.77;;
13855;SDS011;6998;53.608;9.958;2023-02-03T09:47:34;41.77;;;8.47;;
13855;SDS011;6998;53.608;9.958;2023-02-03T09:50:05;39.43;;;8.53;;
13855;SDS011;6998;53.608;9.958;2023-02-03T09:52:37;42.90;;;8.57;;
13855;SDS011;6998;53.608;9.958;2023-02-03T09:55:10;43.70;;;8.83;;
13855;SDS011;6998;53.608;9.958;2023-02-03T09:57:49;38.80;;;8.70;;
13855;SDS011;6998;53.608;9.958;2023-02-03T10:00:23;44.27;;;8.97;;
13855;SDS011;6998;53.608;9.958;2023-02-03T10:02:57;39.77;;;9.03;;
13855;SDS011;6998;53.608;9.958;2023-02-03T10:05:39;43.87;;;8.33;;
13855;SDS011;6998;53.608;9.958;2023-02-03T10:08:20;40.20;;;9.60;;
13855;SDS011;6998;53.608;9.958;2023-02-03T10:10:57;44.77;;;9.47;;
13855;SDS011;6998;53.608;9.958;2023-02-03T10:13:36;43.67;;;9.47;;
13855;SDS011;6998;53.608;9.958;2023-02-03T10:16:24;52.40;;;10.13;;
13855;SDS011;6998;53.608;9.958;2023-02-03T10:19:08;46.53;;;8.90;;
13855;SDS011;6998;53.608;9.958;2023-02-03T10:21:38;46.67;;;9.20;;
13855;SDS011;6998;53.608;9.958;2023-02-03T10:24:09;40.17;;;8.87;;
13855;SDS011;6998;53.608;9.958;2023-02-03T10:26:39;45.07;;;9.20;;
13855;SDS011;6998;53.608;9.958;2023-02-03T10:29:22;48.83;;;9.60;;
13855;SDS011;6998;53.608;9.958;2023-02-03T10:31:55;40.40;;;9.20;;
13855;SDS011;6998;53.608;9.958;2023-02-03T10:34:23;51.53;;;10.67;;
13855;SDS011;6998;53.608;9.958;2023-02-03T10:36:53;43.97;;;10.03;;
13855;SDS011;6998;53.608;9.958;2023-02-03T10:39:26;45.30;;;9.77;;
13855;SDS011;6998;53.608;9.958;2023-02-03T10:41:57;51.63;;;9.50;;
13855;SDS011;6998;53.608;9.958;2023-02-03T10:44:24;40.67;;;9.23;;
13855;SDS011;6998;53.608;9.958;2023-02-03T10:46:58;49.97;;;10.27;;
13855;SDS011;6998;53.608;9.958;2023-02-03T10:49:25;40.50;;;8.87;;
13855;SDS011;6998;53.608;9.958;2023-02-03T10:51:54;39.63;;;8.37;;
13855;SDS011;6998;53.608;9.958;2023-02-03T10:54:27;41.20;;;9.57;;
13855;SDS011;6998;53.608;9.958;2023-02-03T10:56:57;39.63;;;9.27;;
13855;SDS011;6998;53.608;9.958;2023-02-03T10:59:29;44.27;;;9.23;;
13855;SDS011;6998;53.608;9.958;2023-02-03T11:02:00;44.73;;;9.80;;
13855;SDS011;6998;53.608;9.958;2023-02-03T11:04:34;41.57;;;9.00;;
13855;SDS011;6998;53.608;9.958;2023-02-03T11:07:01;53.77;;;10.20;;
13855;SDS011;6998;53.608;9.958;2023-02-03T11:09:31;47.60;;;10.30;;
13855;SDS011;6998;53.608;9.958;2023-02-03T11:12:04;46.83;;;9.30;;
13855;SDS011;6998;53.608;9.958;2023-02-03T11:14:58;52.00;;;9.90;;
13855;SDS011;6998;53.608;9.958;2023-02-03T11:17:31;41.37;;;9.93;;
13855;SDS011;6998;53.608;9.958;2023-02-03T11:20:02;44.00;;;10.50;;
13855;SDS011;6998;53.608;9.958;2023-02-03T11:22:38;37.30;;;9.20;;
13855;SDS011;6998;53.608;9.958;2023-02-03T11:25:14;38.20;;;8.50;;
13855;SDS011;6998;53.608;9.958;2023-02-03T11:27:43;41.53;;;9.13;;
13855;SDS011;6998;53.608;9.958;2023-02-03T11:30:13;38.90;;;8.23;;
13855;SDS011;6998;53.608;9.958;2023-02-03T11:32:43;41.33;;;8.23;;
13855;SDS011;6998;53.608;9.958;2023-02-03T11:35:13;42.97;;;9.20;;
13855;SDS011;6998;53.608;9.958;2023-02-03T11:37:43;39.43;;;8.50;;
13855;SDS011;6998;53.608;9.958;2023-02-03T11:40:24;39.60;;;8.67;;
13855;SDS011;6998;53.608;9.958;2023-02-03T11:43:00;32.40;;;7.60;;
13855;SDS011;6998;53.608;9.958;2023-02-03T11:45:29;37.00;;;7.93;;
13855;SDS011;6998;53.608;9.958;2023-02-03T11:48:04;34.93;;;7.73;;
13855;SDS011;6998;53.608;9.958;2023-02-03T11:50:40;42.23;;;7.87;;
13855;SDS011;6998;53.608;9.958;2023-02-03T11:53:14;43.17;;;7.87;;
13855;SDS011;6998;53.608;9.958;2023-02-03T11:55:53;37.17;;;7.87;;
13855;SDS011;6998;53.608;9.958;2023-02-03T11:58:42;41.67;;;7.43;;
13855;SDS011;6998;53.608;9.958;2023-02-03T12:01:38;33.33;;;8.17;;
13855;SDS011;6998;53.608;9.958;2023-02-03T12:04:22;39.50;;;7.90;;
13855;SDS011;6998;53.608;9.958;2023-02-03T12:07:12;29.10;;;7.23;;
13855;SDS011;6998;53.608;9.958;2023-02-03T12:09:52;34.37;;;7.60;;
13855;SDS011;6998;53.608;9.958;2023-02-03T12:12:34;31.87;;;8.43;;
13855;SDS011;6998;53.608;9.958;2023-02-03T12:15:19;37.70;;;7.93;;
13855;SDS011;6998;53.608;9.958;2023-02-03T12:18:09;33.37;;;8.03;;
13855;SDS011;6998;53.608;9.958;2023-02-03T12:20:51;37.03;;;7.87;;
13855;SDS011;6998;53.608;9.958;2023-02-03T12:23:29;35.50;;;8.07;;
13855;SDS011;6998;53.608;9.958;2023-02-03T12:26:10;36.77;;;7.43;;
13855;SDS011;6998;53.608;9.958;2023-02-03T12:28:45;30.57;;;7.70;;
13855;SDS011;6998;53.608;9.958;2023-02-03T12:31:17;39.63;;;8.57;;
13855;SDS011;6998;53.608;9.958;2023-02-03T12:33:54;38.37;;;8.13;;
13855;SDS011;6998;53.608;9.958;2023-02-03T12:36:29;34.47;;;7.57;;
13855;SDS011;6998;53.608;9.958;2023-02-03T12:39:04;40.07;;;8.07;;
13855;SDS011;6998;53.608;9.958;2023-02-03T12:41:36;41.50;;;8.40;;
13855;SDS011;6998;53.608;9.958;2023-02-03T12:44:07;29.93;;;7.13;;
13855;SDS011;6998;53.608;9.958;2023-02-03T12:46:43;46.97;;;8.23;;
13855;SDS011;6998;53.608;9.958;2023-02-03T12:49:14;32.90;;;7.93;;
13855;SDS011;6998;53.608;9.958;2023-02-03T12:51:54;36.50;;;8.50;;
13855;SDS011;6998;53.608;9.958;2023-02-03T12:54:28;37.53;;;7.70;;
13855;SDS011;6998;53.608;9.958;2023-02-03T12:57:02;34.53;;;7.37;;
13855;SDS011;6998;53.608;9.958;2023-02-03T12:59:38;30.17;;;7.53;;
13855;SDS011;6998;53.608;9.958;2023-02-03T13:02:10;42.17;;;7.47;;
13855;SDS011;6998;53.608;9.958;2023-02-03T13:04:43;26.70;;;6.60;;
13855;SDS011;6998;53.608;9.958;2023-02-03T13:07:18;34.70;;;7.67;;
13855;SDS011;6998;53.608;9.958;2023-02-03T13:09:52;32.97;;;8.23;;
13855;SDS011;6998;53.608;9.958;2023-02-03T13:12:25;31.47;;;6.93;;
13855;SDS011;6998;53.608;9.958;2023-02-03T13:14:56;27.47;;;6.57;;
13855;SDS011;6998;53.608;9.958;2023-02-03T13:17:45;29.07;;;6.73;;
13855;SDS011;6998;53.608;9.958;2023-02-03T13:20:16;39.90;;;7.93;;
13855;SDS011;6998;53.608;9.958;2023-02-03T13:22:47;35.17;;;7.03;;
13855;SDS011;6998;53.608;9.958;2023-02-03T13:25:21;39.43;;;7.47;;
13855;SDS011;6998;53.608;9.958;2023-02-03T13:27:54;34.63;;;7.07;;
13855;SDS011;6998;53.608;9.958;2023-02-03T13:30:37;32.07;;;7.37;;
13855;SDS011;6998;53.608;9.958;2023-02-03T13:33:32;31.27;;;7.80;;
13855;SDS011;6998;53.608;9.958;2023-02-03T13:36:12;28.97;;;6.17;;
13855;SDS011;6998;53.608;9.958;2023-02-03T13:42:07;43.97;;;7.83;;
13855;SDS011;6998;53.608;9.958;2023-02-03T13:44:44;40.57;;;7.60;;
13855;SDS011;6998;53.608;9.958;2023-02-03T13:47:15;33.73;;;6.93;;
13855;SDS011;6998;53.608;9.958;2023-02-03T13:49:47;37.87;;;7.80;;
13855;SDS011;6998;53.608;9.958;2023-02-03T13:52:24;40.87;;;7.90;;
13855;SDS011;6998;53.608;9.958;2023-02-03T13:54:55;32.57;;;7.83;;
13855;SDS011;6998;53.608;9.958;2023-02-03T13:57:25;35.73;;;6.80;;
13855;SDS011;6998;53.608;9.958;2023-02-03T13:59:58;37.63;;;7.93;;
13855;SDS011;6998;53.608;9.958;2023-02-03T14:20:42;31.47;;;7.57;;
13855;SDS011;6998;53.608;9.958;2023-02-03T14:23:46;34.93;;;8.03;;
13855;SDS011;6998;53.608;9.958;2023-02-03T14:26:20;35.30;;;7.37;;
13855;SDS011;6998;53.608;9.958;2023-02-03T14:28:55;34.00;;;7.57;;
13855;SDS011;6998;53.608;9.958;2023-02-03T14:31:22;36.60;;;7.37;;
13855;SDS011;6998;53.608;9.958;2023-02-03T14:33:52;27.40;;;6.43;;
13855;SDS011;6998;53.608;9.958;2023-02-03T14:36:29;33.20;;;7.87;;
13855;SDS011;6998;53.608;9.958;2023-02-03T14:39:00;36.37;;;6.83;;
13855;SDS011;6998;53.608;9.958;2023-02-03T14:41:32;33.03;;;7.53;;
13855;SDS011;6998;53.608;9.958;2023-02-03T14:44:13;38.87;;;7.57;;
13855;SDS011;6998;53.608;9.958;2023-02-03T14:46:51;37.20;;;8.10;;
13855;SDS011;6998;53.608;9.958;2023-02-03T14:49:52;39.97;;;7.83;;
13855;SDS011;6998;53.608;9.958;2023-02-03T14:55:19;40.10;;;7.13;;
13855;SDS011;6998;53.608;9.958;2023-02-03T14:57:55;31.70;;;7.47;;
13855;SDS011;6998;53.608;9.958;2023-02-03T15:00:29;33.80;;;8.03;;
13855;SDS011;6998;53.608;9.958;2023-02-03T15:03:14;45.80;;;8.40;;
13855;SDS011;6998;53.608;9.958;2023-02-03T15:05:47;38.50;;;7.70;;
13855;SDS011;6998;53.608;9.958;2023-02-03T15:11:20;46.27;;;8.43;;
13855;SDS011;6998;53.608;9.958;2023-02-03T15:13:51;40.40;;;8.63;;
13855;SDS011;6998;53.608;9.958;2023-02-03T15:16:21;36.17;;;7.50;;
13855;SDS011;6998;53.608;9.958;2023-02-03T15:18:53;43.53;;;9.27;;
13855;SDS011;6998;53.608;9.958;2023-02-03T15:21:21;45.77;;;8.27;;
13855;SDS011;6998;53.608;9.958;2023-02-03T15:23:49;44.17;;;8.83;;
13855;SDS011;6998;53.608;9.958;2023-02-03T15:26:17;43.83;;;8.50;;
13855;SDS011;6998;53.608;9.958;2023-02-03T15:28:55;46.70;;;9.60;;
13855;SDS011;6998;53.608;9.958;2023-02-03T15:31:31;51.63;;;18.13;;
13855;SDS011;6998;53.608;9.958;2023-02-03T15:34:03;48.63;;;12.17;;
13855;SDS011;6998;53.608;9.958;2023-02-03T15:36:37;45.33;;;12.33;;
13855;SDS011;6998;53.608;9.958;2023-02-03T15:39:12;47.97;;;13.10;;
13855;SDS011;6998;53.608;9.958;2023-02-03T15:41:49;43.73;;;9.00;;
13855;SDS011;6998;53.608;9.958;2023-02-03T15:44:35;47.00;;;14.37;;
13855;SDS011;6998;53.608;9.958;2023-02-03T15:47:17;37.07;;;8.53;;
13855;SDS011;6998;53.608;9.958;2023-02-03T15:49:50;41.60;;;9.23;;